sensor_id;sensor_type;location;lat;lon;timestamp;pressure;altitude;pressure_sealevel;temperature;humidity
69842;BME280;57138;51.326;-0.068;2023-01-31T00:01:30;100875.13;;;2.25;87.75
69842;BME280;57138;51.326;-0.068;2023-01-31T00:03:58;100863.53;;;2.28;87.54
69842;BME280;57138;51.326;-0.068;2023-01-31T00:06:28;100878.00;;;2.33;87.78
69842;BME280;57138;51.326;-0.068;2023-01-31T00:08:55;100867.94;;;2.27;87.90
69842;BME280;57138;51.326;-0.068;2023-01-31T00:11:24;100869.75;;;2.38;88.08
69842;BME280;57138;51.326;-0.068;2023-01-31T00:13:50;100868.91;;;2.38;88.10
69842;BME280;57138;51.326;-0.068;2023-01-31T00:16:16;100864.47;;;2.38;87.96
69842;BME280;57138;51.326;-0.068;2023-01-31T00:18:44;100867.38;;;2.46;88.08
69842;BME280;57138;51.326;-0.068;2023-01-31T00:21:15;100851.78;;;2.43;88.06
69842;BME280;57138;51.326;-0.068;2023-01-31T00:23:42;100855.13;;;2.45;88.21
69842;BME280;57138;51.326;-0.068;2023-01-31T00:26:24;100868.31;;;2.57;87.96
69842;BME280;57138;51.326;-0.068;2023-01-31T00:28:54;100864.47;;;2.61;88.18
69842;BME280;57138;51.326;-0.068;2023-01-31T00:31:22;100853.69;;;2.64;88.06
69842;BME280;57138;51.326;-0.068;2023-01-31T00:33:49;100857.72;;;2.68;87.69
69842;BME280;57138;51.326;-0.068;2023-01-31T00:36:20;100838.75;;;2.74;87.80
69842;BME280;57138;51.326;-0.068;2023-01-31T00:38:48;100833.72;;;2.71;88.08
69842;BME280;57138;51.326;-0.068;2023-01-31T00:41:14;100831.78;;;2.84;87.49
69842;BME280;57138;51.326;-0.068;2023-01-31T00:43:39;100822.19;;;2.83;87.79
69842;BME280;57138;51.326;-0.068;2023-01-31T00:46:05;100815.56;;;2.89;87.64
69842;BME280;57138;51.326;-0.068;2023-01-31T00:48:31;100792.44;;;2.81;86.86
69842;BME280;57138;51.326;-0.068;2023-01-31T00:50:56;100802.94;;;2.93;87.57
69842;BME280;57138;51.326;-0.068;2023-01-31T00:53:22;100801.53;;;2.88;87.17
69842;BME280;57138;51.326;-0.068;2023-01-31T00:55:53;100819.53;;;2.95;87.29
69842;BME280;57138;51.326;-0.068;2023-01-31T00:58:19;100816.91;;;2.95;86.88
69842;BME280;57138;51.326;-0.068;2023-01-31T01:01:06;100820.00;;;3.00;87.62
69842;BME280;57138;51.326;-0.068;2023-01-31T01:03:32;100827.91;;;3.00;87.06
69842;BME280;57138;51.326;-0.068;2023-01-31T01:05:58;100815.91;;;2.96;87.40
69842;BME280;57138;51.326;-0.068;2023-01-31T01:08:23;100806.69;;;2.90;87.07
69842;BME280;57138;51.326;-0.068;2023-01-31T01:10:49;100811.81;;;3.03;87.23
69842;BME280;57138;51.326;-0.068;2023-01-31T01:13:14;100812.66;;;3.03;87.14
69842;BME280;57138;51.326;-0.068;2023-01-31T01:15:40;100804.03;;;3.01;87.09
69842;BME280;57138;51.326;-0.068;2023-01-31T01:18:05;100820.94;;;2.99;87.09
69842;BME280;57138;51.326;-0.068;2023-01-31T01:20:33;100818.66;;;3.05;86.83
69842;BME280;57138;51.326;-0.068;2023-01-31T01:22:59;100836.19;;;3.06;87.26
69842;BME280;57138;51.326;-0.068;2023-01-31T01:25:25;100809.88;;;3.05;87.01
69842;BME280;57138;51.326;-0.068;2023-01-31T01:27:50;100821.06;;;3.09;86.90
69842;BME280;57138;51.326;-0.068;2023-01-31T01:30:16;100807.38;;;3.03;87.14
69842;BME280;57138;51.326;-0.068;2023-01-31T01:32:41;100808.69;;;3.09;86.61
69842;BME280;57138;51.326;-0.068;2023-01-31T01:35:07;100805.09;;;3.10;86.46
69842;BME280;57138;51.326;-0.068;2023-01-31T01:37:34;100801.56;;;3.10;86.68
69842;BME280;57138;51.326;-0.068;2023-01-31T01:40:00;100802.63;;;3.18;86.68
69842;BME280;57138;51.326;-0.068;2023-01-31T01:42:33;100787.03;;;3.15;86.75
69842;BME280;57138;51.326;-0.068;2023-01-31T01:45:00;100785.81;;;3.19;86.67
69842;BME280;57138;51.326;-0.068;2023-01-31T01:47:50;100799.50;;;3.24;86.65
69842;BME280;57138;51.326;-0.068;2023-01-31T01:50:33;100804.03;;;3.22;86.46
69842;BME280;57138;51.326;-0.068;2023-01-31T01:53:04;100801.41;;;3.22;86.55
69842;BME280;57138;51.326;-0.068;2023-01-31T01:55:34;100810.63;;;3.28;86.50
69842;BME280;57138;51.326;-0.068;2023-01-31T01:58:13;100794.53;;;3.31;86.24
69842;BME280;57138;51.326;-0.068;2023-01-31T02:00:42;100803.16;;;3.33;86.31
69842;BME280;57138;51.326;-0.068;2023-01-31T02:03:09;100789.00;;;3.34;85.87
69842;BME280;57138;51.326;-0.068;2023-01-31T02:05:43;100789.56;;;3.38;86.67
69842;BME280;57138;51.326;-0.068;2023-01-31T02:08:14;100792.09;;;3.39;86.39
69842;BME280;57138;51.326;-0.068;2023-01-31T02:10:48;100796.53;;;3.39;85.96
69842;BME280;57138;51.326;-0.068;2023-01-31T02:13:16;100792.22;;;3.38;86.10
69842;BME280;57138;51.326;-0.068;2023-01-31T02:15:43;100781.69;;;3.27;86.04
69842;BME280;57138;51.326;-0.068;2023-01-31T02:18:10;100788.66;;;3.28;86.10
69842;BME280;57138;51.326;-0.068;2023-01-31T02:26:17;100796.41;;;3.40;86.50
69842;BME280;57138;51.326;-0.068;2023-01-31T02:35:23;100787.03;;;3.36;86.45
69842;BME280;57138;51.326;-0.068;2023-01-31T02:38:16;100795.19;;;3.45;86.30
69842;BME280;57138;51.326;-0.068;2023-01-31T02:40:55;100791.81;;;3.42;86.38
69842;BME280;57138;51.326;-0.068;2023-01-31T02:43:40;100796.03;;;3.45;87.04
69842;BME280;57138;51.326;-0.068;2023-01-31T02:47:05;100799.38;;;3.47;86.79
69842;BME280;57138;51.326;-0.068;2023-01-31T02:49:41;100793.38;;;3.45;86.70
69842;BME280;57138;51.326;-0.068;2023-01-31T02:52:22;100778.16;;;3.37;86.92
69842;BME280;57138;51.326;-0.068;2023-01-31T02:57:44;100769.03;;;3.41;87.41
69842;BME280;57138;51.326;-0.068;2023-01-31T03:00:13;100764.75;;;3.50;87.53
69842;BME280;57138;51.326;-0.068;2023-01-31T03:02:39;100766.03;;;3.56;87.47
69842;BME280;57138;51.326;-0.068;2023-01-31T03:05:05;100739.81;;;3.43;87.68
69842;BME280;57138;51.326;-0.068;2023-01-31T03:07:33;100746.25;;;3.50;87.81
69842;BME280;57138;51.326;-0.068;2023-01-31T03:10:19;100746.44;;;3.58;88.12
69842;BME280;57138;51.326;-0.068;2023-01-31T03:19:00;100744.94;;;3.66;87.99
69842;BME280;57138;51.326;-0.068;2023-01-31T03:21:33;100738.97;;;3.64;87.87
69842;BME280;57138;51.326;-0.068;2023-01-31T03:24:03;100739.38;;;3.69;88.18
69842;BME280;57138;51.326;-0.068;2023-01-31T03:26:29;100730.75;;;3.67;88.08
69842;BME280;57138;51.326;-0.068;2023-01-31T03:28:56;100737.06;;;3.75;88.49
69842;BME280;57138;51.326;-0.068;2023-01-31T03:31:31;100744.84;;;3.77;88.73
69842;BME280;57138;51.326;-0.068;2023-01-31T03:34:05;100735.84;;;3.80;88.77
69842;BME280;57138;51.326;-0.068;2023-01-31T03:42:30;100714.50;;;3.71;88.12
69842;BME280;57138;51.326;-0.068;2023-01-31T03:45:08;100730.84;;;3.86;88.74
69842;BME280;57138;51.326;-0.068;2023-01-31T03:47:40;100729.19;;;3.85;88.60
69842;BME280;57138;51.326;-0.068;2023-01-31T03:52:52;100722.78;;;3.88;88.47
69842;BME280;57138;51.326;-0.068;2023-01-31T03:55:20;100710.00;;;3.93;89.35
69842;BME280;57138;51.326;-0.068;2023-01-31T03:57:52;100720.47;;;3.94;88.91
69842;BME280;57138;51.326;-0.068;2023-01-31T04:00:20;100691.88;;;3.88;88.99
69842;BME280;57138;51.326;-0.068;2023-01-31T04:02:50;100705.53;;;3.93;89.00
69842;BME280;57138;51.326;-0.068;2023-01-31T04:05:21;100674.63;;;3.94;89.26
69842;BME280;57138;51.326;-0.068;2023-01-31T04:07:47;100689.41;;;3.96;88.76
69842;BME280;57138;51.326;-0.068;2023-01-31T04:10:16;100683.56;;;3.93;88.64
69842;BME280;57138;51.326;-0.068;2023-01-31T04:12:43;100690.22;;;3.97;89.14
69842;BME280;57138;51.326;-0.068;2023-01-31T04:15:10;100682.56;;;3.94;89.16
69842;BME280;57138;51.326;-0.068;2023-01-31T04:17:36;100686.31;;;3.91;88.42
69842;BME280;57138;51.326;-0.068;2023-01-31T04:20:02;100702.63;;;3.96;88.42
69842;BME280;57138;51.326;-0.068;2023-01-31T04:22:28;100701.66;;;3.98;88.80
69842;BME280;57138;51.326;-0.068;2023-01-31T04:24:53;100710.31;;;4.00;88.70
69842;BME280;57138;51.326;-0.068;2023-01-31T04:27:19;100699.44;;;4.03;89.40
69842;BME280;57138;51.326;-0.068;2023-01-31T04:29:44;100699.97;;;3.96;89.08
69842;BME280;57138;51.326;-0.068;2023-01-31T04:32:10;100695.38;;;3.99;89.06
69842;BME280;57138;51.326;-0.068;2023-01-31T04:34:35;100695.84;;;4.04;89.37
69842;BME280;57138;51.326;-0.068;2023-01-31T04:37:01;100696.81;;;4.03;89.43
69842;BME280;57138;51.326;-0.068;2023-01-31T04:39:26;100690.69;;;4.02;89.22
69842;BME280;57138;51.326;-0.068;2023-01-31T04:41:52;100684.53;;;4.02;89.55
69842;BME280;57138;51.326;-0.068;2023-01-31T04:44:18;100692.94;;;4.07;89.53
69842;BME280;57138;51.326;-0.068;2023-01-31T04:46:43;100686.34;;;4.01;89.54
69842;BME280;57138;51.326;-0.068;2023-01-31T04:49:11;100687.91;;;4.04;89.76
69842;BME280;57138;51.326;-0.068;2023-01-31T04:51:37;100698.91;;;4.09;90.15
69842;BME280;57138;51.326;-0.068;2023-01-31T04:54:03;100683.84;;;4.00;89.63
69842;BME280;57138;51.326;-0.068;2023-01-31T04:56:29;100690.28;;;4.07;89.81
69842;BME280;57138;51.326;-0.068;2023-01-31T04:58:56;100701.97;;;4.14;90.20
69842;BME280;57138;51.326;-0.068;2023-01-31T05:01:22;100701.97;;;4.14;90.39
69842;BME280;57138;51.326;-0.068;2023-01-31T05:03:47;100690.00;;;4.10;90.13
69842;BME280;57138;51.326;-0.068;2023-01-31T05:06:13;100702.72;;;4.16;90.38
69842;BME280;57138;51.326;-0.068;2023-01-31T05:08:38;100699.78;;;4.19;89.85
69842;BME280;57138;51.326;-0.068;2023-01-31T05:11:04;100684.44;;;4.13;90.41
69842;BME280;57138;51.326;-0.068;2023-01-31T05:13:33;100703.13;;;4.21;90.17
69842;BME280;57138;51.326;-0.068;2023-01-31T05:16:05;100696.84;;;4.22;90.52
69842;BME280;57138;51.326;-0.068;2023-01-31T05:18:31;100698.53;;;4.23;90.53
69842;BME280;57138;51.326;-0.068;2023-01-31T05:20:56;100682.50;;;4.15;90.07
69842;BME280;57138;51.326;-0.068;2023-01-31T05:23:22;100697.56;;;4.24;90.54
69842;BME280;57138;51.326;-0.068;2023-01-31T05:25:49;100684.75;;;4.20;90.74
69842;BME280;57138;51.326;-0.068;2023-01-31T05:28:15;100684.47;;;4.23;90.44
69842;BME280;57138;51.326;-0.068;2023-01-31T05:30:40;100673.31;;;4.19;90.51
69842;BME280;57138;51.326;-0.068;2023-01-31T05:33:06;100685.84;;;4.27;90.69
69842;BME280;57138;51.326;-0.068;2023-01-31T05:35:31;100670.09;;;4.16;90.59
69842;BME280;57138;51.326;-0.068;2023-01-31T05:37:57;100681.13;;;4.21;90.61
69842;BME280;57138;51.326;-0.068;2023-01-31T05:40:22;100664.78;;;4.16;90.66
69842;BME280;57138;51.326;-0.068;2023-01-31T05:42:55;100689.91;;;4.21;90.60
69842;BME280;57138;51.326;-0.068;2023-01-31T05:45:22;100678.31;;;4.12;90.27
69842;BME280;57138;51.326;-0.068;2023-01-31T05:47:48;100691.56;;;4.22;90.72
69842;BME280;57138;51.326;-0.068;2023-01-31T05:50:13;100671.91;;;4.15;91.04
69842;BME280;57138;51.326;-0.068;2023-01-31T05:52:39;100648.22;;;4.13;91.08
69842;BME280;57138;51.326;-0.068;2023-01-31T05:55:05;100645.44;;;4.15;91.08
69842;BME280;57138;51.326;-0.068;2023-01-31T05:57:30;100652.97;;;4.20;90.84
69842;BME280;57138;51.326;-0.068;2023-01-31T05:59:56;100637.91;;;4.20;90.96
69842;BME280;57138;51.326;-0.068;2023-01-31T06:02:26;100620.66;;;4.16;91.28
69842;BME280;57138;51.326;-0.068;2023-01-31T06:04:53;100636.97;;;4.31;91.61
69842;BME280;57138;51.326;-0.068;2023-01-31T06:07:18;100622.03;;;4.20;91.22
69842;BME280;57138;51.326;-0.068;2023-01-31T06:09:44;100642.66;;;4.26;91.48
69842;BME280;57138;51.326;-0.068;2023-01-31T06:12:12;100647.69;;;4.29;91.41
69842;BME280;57138;51.326;-0.068;2023-01-31T06:14:38;100647.69;;;4.29;91.39
69842;BME280;57138;51.326;-0.068;2023-01-31T06:17:04;100653.97;;;4.38;91.61
69842;BME280;57138;51.326;-0.068;2023-01-31T06:19:30;100640.16;;;4.35;91.74
69842;BME280;57138;51.326;-0.068;2023-01-31T06:21:55;100641.31;;;4.42;92.01
69842;BME280;57138;51.326;-0.068;2023-01-31T06:24:21;100632.66;;;4.40;91.66
69842;BME280;57138;51.326;-0.068;2023-01-31T06:26:46;100638.09;;;4.38;91.75
69842;BME280;57138;51.326;-0.068;2023-01-31T06:29:12;100636.28;;;4.39;91.41
69842;BME280;57138;51.326;-0.068;2023-01-31T06:31:37;100636.97;;;4.41;91.68
69842;BME280;57138;51.326;-0.068;2023-01-31T06:34:03;100640.75;;;4.38;91.70
69842;BME280;57138;51.326;-0.068;2023-01-31T06:36:31;100655.09;;;4.36;92.03
69842;BME280;57138;51.326;-0.068;2023-01-31T06:38:58;100655.09;;;4.36;91.62
69842;BME280;57138;51.326;-0.068;2023-01-31T06:41:23;100629.97;;;4.20;92.34
69842;BME280;57138;51.326;-0.068;2023-01-31T06:43:49;100643.22;;;4.20;91.78
69842;BME280;57138;51.326;-0.068;2023-01-31T06:46:15;100652.16;;;4.19;92.43
69842;BME280;57138;51.326;-0.068;2023-01-31T06:48:41;100646.69;;;4.11;92.13
69842;BME280;57138;51.326;-0.068;2023-01-31T06:51:08;100653.22;;;4.07;92.16
69842;BME280;57138;51.326;-0.068;2023-01-31T06:53:33;100651.00;;;4.12;92.69
69842;BME280;57138;51.326;-0.068;2023-01-31T06:55:59;100640.00;;;4.07;92.88
69842;BME280;57138;51.326;-0.068;2023-01-31T06:58:24;100639.00;;;4.08;93.69
69842;BME280;57138;51.326;-0.068;2023-01-31T07:00:50;100635.41;;;4.09;93.38
69842;BME280;57138;51.326;-0.068;2023-01-31T07:03:15;100628.00;;;4.03;93.36
69842;BME280;57138;51.326;-0.068;2023-01-31T07:05:41;100637.63;;;4.13;93.82
69842;BME280;57138;51.326;-0.068;2023-01-31T07:08:06;100631.66;;;4.11;94.63
69842;BME280;57138;51.326;-0.068;2023-01-31T07:10:32;100633.19;;;4.14;94.62
69842;BME280;57138;51.326;-0.068;2023-01-31T07:12:57;100636.28;;;4.19;94.57
69842;BME280;57138;51.326;-0.068;2023-01-31T07:15:23;100636.28;;;4.29;94.82
69842;BME280;57138;51.326;-0.068;2023-01-31T07:17:48;100650.63;;;4.36;95.02
69842;BME280;57138;51.326;-0.068;2023-01-31T07:20:14;100646.88;;;4.39;95.06
69842;BME280;57138;51.326;-0.068;2023-01-31T07:22:39;100637.38;;;4.36;95.03
69842;BME280;57138;51.326;-0.068;2023-01-31T07:25:05;100631.53;;;4.42;95.12
69842;BME280;57138;51.326;-0.068;2023-01-31T07:27:30;100651.75;;;4.53;94.69
69842;BME280;57138;51.326;-0.068;2023-01-31T07:29:56;100620.81;;;4.44;95.36
69842;BME280;57138;51.326;-0.068;2023-01-31T07:32:21;100627.91;;;4.53;95.11
69842;BME280;57138;51.326;-0.068;2023-01-31T07:34:47;100626.00;;;4.55;94.72
69842;BME280;57138;51.326;-0.068;2023-01-31T07:37:12;100643.97;;;4.61;94.89
69842;BME280;57138;51.326;-0.068;2023-01-31T07:39:38;100650.78;;;4.64;95.44
69842;BME280;57138;51.326;-0.068;2023-01-31T07:42:03;100650.22;;;4.70;95.53
69842;BME280;57138;51.326;-0.068;2023-01-31T07:44:29;100650.09;;;4.72;95.67
69842;BME280;57138;51.326;-0.068;2023-01-31T07:46:54;100640.22;;;4.74;95.24
69842;BME280;57138;51.326;-0.068;2023-01-31T07:49:20;100646.59;;;4.81;95.01
69842;BME280;57138;51.326;-0.068;2023-01-31T07:51:46;100642.53;;;4.77;94.97
69842;BME280;57138;51.326;-0.068;2023-01-31T07:54:11;100641.16;;;4.82;95.89
69842;BME280;57138;51.326;-0.068;2023-01-31T07:56:37;100631.81;;;4.88;95.27
69842;BME280;57138;51.326;-0.068;2023-01-31T07:59:02;100631.09;;;4.86;95.41
69842;BME280;57138;51.326;-0.068;2023-01-31T08:01:28;100642.53;;;4.96;95.61
69842;BME280;57138;51.326;-0.068;2023-01-31T08:04:14;100634.59;;;4.96;95.45
69842;BME280;57138;51.326;-0.068;2023-01-31T08:06:42;100638.50;;;5.02;95.67
69842;BME280;57138;51.326;-0.068;2023-01-31T08:09:08;100644.34;;;5.06;95.63
69842;BME280;57138;51.326;-0.068;2023-01-31T08:11:33;100629.25;;;5.06;95.71
69842;BME280;57138;51.326;-0.068;2023-01-31T08:13:59;100634.84;;;5.13;95.29
69842;BME280;57138;51.326;-0.068;2023-01-31T08:16:24;100648.50;;;5.18;95.01
69842;BME280;57138;51.326;-0.068;2023-01-31T08:18:51;100647.53;;;5.19;95.11
69842;BME280;57138;51.326;-0.068;2023-01-31T08:21:16;100653.25;;;5.24;95.58
69842;BME280;57138;51.326;-0.068;2023-01-31T08:23:42;100650.59;;;5.24;95.70
69842;BME280;57138;51.326;-0.068;2023-01-31T08:26:13;100647.66;;;5.27;95.47
69842;BME280;57138;51.326;-0.068;2023-01-31T08:28:40;100640.38;;;5.29;95.67
69842;BME280;57138;51.326;-0.068;2023-01-31T08:31:06;100637.53;;;5.40;95.88
69842;BME280;57138;51.326;-0.068;2023-01-31T08:33:32;100637.53;;;5.40;95.34
69842;BME280;57138;51.326;-0.068;2023-01-31T08:36:18;100646.59;;;5.48;95.60
69842;BME280;57138;51.326;-0.068;2023-01-31T08:38:44;100620.66;;;5.42;95.24
69842;BME280;57138;51.326;-0.068;2023-01-31T08:41:10;100626.66;;;5.44;95.35
69842;BME280;57138;51.326;-0.068;2023-01-31T08:43:36;100634.59;;;5.53;95.12
69842;BME280;57138;51.326;-0.068;2023-01-31T08:46:03;100635.28;;;5.55;95.18
69842;BME280;57138;51.326;-0.068;2023-01-31T08:48:32;100633.88;;;5.51;95.47
69842;BME280;57138;51.326;-0.068;2023-01-31T08:51:00;100638.06;;;5.54;95.23
69842;BME280;57138;51.326;-0.068;2023-01-31T08:53:26;100627.16;;;5.57;94.74
69842;BME280;57138;51.326;-0.068;2023-01-31T08:55:57;100627.16;;;5.57;95.00
69842;BME280;57138;51.326;-0.068;2023-01-31T08:58:23;100633.88;;;5.61;94.79
69842;BME280;57138;51.326;-0.068;2023-01-31T09:00:48;100636.91;;;5.66;95.36
69842;BME280;57138;51.326;-0.068;2023-01-31T09:03:14;100623.25;;;5.61;95.00
69842;BME280;57138;51.326;-0.068;2023-01-31T09:05:44;100618.25;;;5.58;94.97
69842;BME280;57138;51.326;-0.068;2023-01-31T09:08:10;100641.09;;;5.69;94.75
69842;BME280;57138;51.326;-0.068;2023-01-31T09:10:39;100634.94;;;5.68;94.83
69842;BME280;57138;51.326;-0.068;2023-01-31T09:13:05;100646.13;;;5.72;95.28
69842;BME280;57138;51.326;-0.068;2023-01-31T09:15:30;100626.00;;;5.69;94.45
69842;BME280;57138;51.326;-0.068;2023-01-31T09:17:56;100624.88;;;5.72;94.77
69842;BME280;57138;51.326;-0.068;2023-01-31T09:20:22;100601.03;;;5.62;94.35
69842;BME280;57138;51.326;-0.068;2023-01-31T09:22:50;100624.31;;;5.78;95.24
69842;BME280;57138;51.326;-0.068;2023-01-31T09:25:16;100627.09;;;5.76;95.30
69842;BME280;57138;51.326;-0.068;2023-01-31T09:27:42;100614.81;;;5.75;95.09
69842;BME280;57138;51.326;-0.068;2023-01-31T09:30:10;100613.91;;;5.85;94.94
69842;BME280;57138;51.326;-0.068;2023-01-31T09:32:48;100596.63;;;5.81;95.07
69842;BME280;57138;51.326;-0.068;2023-01-31T09:35:34;100599.91;;;5.92;95.12
69842;BME280;57138;51.326;-0.068;2023-01-31T09:38:15;100588.75;;;5.89;95.33
69842;BME280;57138;51.326;-0.068;2023-01-31T09:40:43;100608.13;;;5.99;94.82
69842;BME280;57138;51.326;-0.068;2023-01-31T09:46:25;100601.63;;;6.11;94.30
69842;BME280;57138;51.326;-0.068;2023-01-31T09:49:05;100604.06;;;6.23;94.42
69842;BME280;57138;51.326;-0.068;2023-01-31T09:51:36;100612.13;;;6.31;94.75
69842;BME280;57138;51.326;-0.068;2023-01-31T09:54:04;100616.00;;;6.37;94.34
69842;BME280;57138;51.326;-0.068;2023-01-31T09:56:44;100602.03;;;6.35;94.62
69842;BME280;57138;51.326;-0.068;2023-01-31T09:59:50;100602.94;;;6.43;94.20
69842;BME280;57138;51.326;-0.068;2023-01-31T10:05:32;100620.25;;;6.47;94.37
69842;BME280;57138;51.326;-0.068;2023-01-31T10:10:53;100619.41;;;6.47;94.07
69842;BME280;57138;51.326;-0.068;2023-01-31T10:13:29;100633.66;;;6.46;93.65
69842;BME280;57138;51.326;-0.068;2023-01-31T10:18:43;100630.03;;;6.47;93.53
69842;BME280;57138;51.326;-0.068;2023-01-31T10:21:40;100638.84;;;6.47;94.38
69842;BME280;57138;51.326;-0.068;2023-01-31T10:24:35;100632.53;;;6.48;93.92
69842;BME280;57138;51.326;-0.068;2023-01-31T10:27:08;100642.88;;;6.52;93.87
69842;BME280;57138;51.326;-0.068;2023-01-31T10:29:46;100649.00;;;6.52;94.27
69842;BME280;57138;51.326;-0.068;2023-01-31T10:32:29;100640.81;;;6.45;94.42
69842;BME280;57138;51.326;-0.068;2023-01-31T10:35:15;100646.81;;;6.47;94.39
69842;BME280;57138;51.326;-0.068;2023-01-31T10:37:47;100638.84;;;6.47;93.81
69842;BME280;57138;51.326;-0.068;2023-01-31T10:40:17;100643.69;;;6.52;94.57
69842;BME280;57138;51.326;-0.068;2023-01-31T10:42:48;100639.19;;;6.53;94.31
69842;BME280;57138;51.326;-0.068;2023-01-31T10:45:24;100632.25;;;6.52;94.06
69842;BME280;57138;51.326;-0.068;2023-01-31T10:48:03;100642.47;;;6.64;94.65
69842;BME280;57138;51.326;-0.068;2023-01-31T10:53:30;100643.41;;;6.73;94.50
69842;BME280;57138;51.326;-0.068;2023-01-31T10:59:06;100634.16;;;6.86;95.15
69842;BME280;57138;51.326;-0.068;2023-01-31T11:01:34;100613.56;;;6.79;94.57
69842;BME280;57138;51.326;-0.068;2023-01-31T11:04:29;100633.25;;;6.95;94.51
69842;BME280;57138;51.326;-0.068;2023-01-31T11:06:57;100611.25;;;6.84;94.79
69842;BME280;57138;51.326;-0.068;2023-01-31T11:09:26;100622.31;;;6.98;94.54
69842;BME280;57138;51.326;-0.068;2023-01-31T11:12:00;100608.81;;;6.91;94.39
69842;BME280;57138;51.326;-0.068;2023-01-31T11:14:26;100621.06;;;7.10;94.43
69842;BME280;57138;51.326;-0.068;2023-01-31T11:17:05;100622.13;;;7.17;95.13
69842;BME280;57138;51.326;-0.068;2023-01-31T11:22:22;100602.84;;;7.15;94.63
69842;BME280;57138;51.326;-0.068;2023-01-31T11:25:19;100612.88;;;7.30;95.04
69842;BME280;57138;51.326;-0.068;2023-01-31T11:31:28;100614.28;;;7.42;94.92
69842;BME280;57138;51.326;-0.068;2023-01-31T11:34:04;100582.84;;;7.37;94.36
69842;BME280;57138;51.326;-0.068;2023-01-31T11:36:42;100598.19;;;7.52;94.27
69842;BME280;57138;51.326;-0.068;2023-01-31T11:39:31;100589.41;;;7.60;93.76
69842;BME280;57138;51.326;-0.068;2023-01-31T11:42:15;100566.28;;;7.52;94.43
69842;BME280;57138;51.326;-0.068;2023-01-31T11:45:02;100584.50;;;7.73;93.74
69842;BME280;57138;51.326;-0.068;2023-01-31T11:51:00;100586.84;;;7.84;93.43
69842;BME280;57138;51.326;-0.068;2023-01-31T11:53:46;100579.53;;;7.86;93.21
69842;BME280;57138;51.326;-0.068;2023-01-31T11:56:45;100553.56;;;7.80;92.51
69842;BME280;57138;51.326;-0.068;2023-01-31T11:59:34;100561.22;;;7.91;93.16
69842;BME280;57138;51.326;-0.068;2023-01-31T12:02:05;100554.25;;;7.90;92.57
69842;BME280;57138;51.326;-0.068;2023-01-31T12:08:43;100557.94;;;8.06;92.79
69842;BME280;57138;51.326;-0.068;2023-01-31T12:16:31;100537.66;;;8.30;92.32
69842;BME280;57138;51.326;-0.068;2023-01-31T12:31:59;100512.03;;;8.70;90.23
69842;BME280;57138;51.326;-0.068;2023-01-31T12:50:48;100519.50;;;8.82;89.55
69842;BME280;57138;51.326;-0.068;2023-01-31T12:56:35;100522.94;;;9.08;89.50
69842;BME280;57138;51.326;-0.068;2023-01-31T13:08:42;100521.06;;;9.25;87.73
69842;BME280;57138;51.326;-0.068;2023-01-31T13:11:29;100512.56;;;9.21;87.82
69842;BME280;57138;51.326;-0.068;2023-01-31T13:17:12;100516.53;;;9.25;87.72
69842;BME280;57138;51.326;-0.068;2023-01-31T13:20:22;100524.88;;;9.30;87.67
69842;BME280;57138;51.326;-0.068;2023-01-31T13:22:58;100509.91;;;9.21;87.16
69842;BME280;57138;51.326;-0.068;2023-01-31T13:26:12;100513.34;;;9.30;86.56
69842;BME280;57138;51.326;-0.068;2023-01-31T13:31:44;100503.03;;;9.27;86.38
69842;BME280;57138;51.326;-0.068;2023-01-31T13:34:22;100511.50;;;9.39;86.01
69842;BME280;57138;51.326;-0.068;2023-01-31T13:36:57;100514.59;;;9.50;85.11
69842;BME280;57138;51.326;-0.068;2023-01-31T13:39:38;100538.72;;;9.65;84.47
69842;BME280;57138;51.326;-0.068;2023-01-31T13:42:12;100511.75;;;9.52;83.59
69842;BME280;57138;51.326;-0.068;2023-01-31T13:44:38;100522.44;;;9.52;83.27
69842;BME280;57138;51.326;-0.068;2023-01-31T13:49:52;100513.44;;;9.53;83.40
69842;BME280;57138;51.326;-0.068;2023-01-31T13:52:24;100526.13;;;9.51;83.61
69842;BME280;57138;51.326;-0.068;2023-01-31T13:54:55;100490.16;;;9.39;83.70
69842;BME280;57138;51.326;-0.068;2023-01-31T13:57:28;100494.78;;;9.45;83.31
69842;BME280;57138;51.326;-0.068;2023-01-31T14:00:22;100487.25;;;9.48;82.06
69842;BME280;57138;51.326;-0.068;2023-01-31T14:03:02;100500.19;;;9.68;81.93
69842;BME280;57138;51.326;-0.068;2023-01-31T14:08:36;100498.53;;;9.90;80.70
69842;BME280;57138;51.326;-0.068;2023-01-31T14:14:22;100494.50;;;9.94;78.37
69842;BME280;57138;51.326;-0.068;2023-01-31T14:16:55;100488.31;;;9.94;79.28
69842;BME280;57138;51.326;-0.068;2023-01-31T14:22:12;100500.00;;;10.16;78.37
69842;BME280;57138;51.326;-0.068;2023-01-31T14:43:59;100515.22;;;10.38;73.07
69842;BME280;57138;51.326;-0.068;2023-01-31T14:47:07;100534.31;;;10.35;70.86
69842;BME280;57138;51.326;-0.068;2023-01-31T14:50:06;100532.50;;;10.28;70.16
69842;BME280;57138;51.326;-0.068;2023-01-31T14:58:35;100525.47;;;10.03;71.10
69842;BME280;57138;51.326;-0.068;2023-01-31T15:01:08;100520.00;;;9.97;70.68
69842;BME280;57138;51.326;-0.068;2023-01-31T15:03:49;100521.44;;;9.84;69.65
69842;BME280;57138;51.326;-0.068;2023-01-31T15:06:30;100521.78;;;9.81;69.98
69842;BME280;57138;51.326;-0.068;2023-01-31T15:11:56;100531.41;;;9.59;68.75
69842;BME280;57138;51.326;-0.068;2023-01-31T15:14:40;100537.44;;;9.53;67.92
69842;BME280;57138;51.326;-0.068;2023-01-31T15:17:20;100550.78;;;9.53;67.23
69842;BME280;57138;51.326;-0.068;2023-01-31T15:23:17;100562.88;;;9.32;67.70
69842;BME280;57138;51.326;-0.068;2023-01-31T15:25:51;100575.88;;;9.35;67.12
69842;BME280;57138;51.326;-0.068;2023-01-31T15:28:20;100557.25;;;9.27;68.08
69842;BME280;57138;51.326;-0.068;2023-01-31T15:30:47;100571.25;;;9.29;67.69
69842;BME280;57138;51.326;-0.068;2023-01-31T15:33:27;100559.56;;;9.22;67.80
69842;BME280;57138;51.326;-0.068;2023-01-31T15:36:00;100557.94;;;9.21;67.18
69842;BME280;57138;51.326;-0.068;2023-01-31T15:38:51;100573.22;;;9.35;67.61
69842;BME280;57138;51.326;-0.068;2023-01-31T15:41:40;100589.88;;;9.38;67.70
69842;BME280;57138;51.326;-0.068;2023-01-31T15:44:21;100569.91;;;9.25;66.71
69842;BME280;57138;51.326;-0.068;2023-01-31T15:46:50;100578.94;;;9.24;66.93
69842;BME280;57138;51.326;-0.068;2023-01-31T15:49:26;100597.25;;;9.35;67.63